Time;durP1;ratioP1;P1;durP2;ratioP2;P2;SDS_P1;SDS_P2;PMS_P1;PMS_P2;Temp;Humidity;BMP_temperature;BMP_pressure;BME280_temperature;BME280_humidity;BME280_pressure;Samples;Min_cycle;Max_cycle;Signal;HPM_P1;HPM_P2
2023/06/13 00:01:24;;;;;;;;;;;18.80;79.80;;;;;;4903806;29;20378;-87
2023/06/13 00:03:53;;;;;;;;;;;18.30;78.00;;;;;;4894958;29;20377;-88
2023/06/13 00:06:22;;;;;;;;;;;18.80;77.80;;;;;;4905674;29;19960;-89
2023/06/13 00:08:51;;;;;;;;;;;19.30;77.80;;;;;;4900709;29;20010;-89
2023/06/13 00:11:16;;;;;;;;;;;18.20;74.80;;;;;;4884947;29;19927;-89
2023/06/13 00:13:45;;;;;;;;;;;18.10;79.50;;;;;;4884385;29;20279;-88
2023/06/13 00:16:16;;;;;;;;;;;18.50;75.50;;;;;;4887607;29;19943;-88
2023/06/13 00:18:45;;;;;;;;;;;17.60;71.50;;;;;;4903441;29;20386;-88
2023/06/13 00:21:11;;;;;;;;;;;19.30;72.50;;;;;;4902832;29;20339;-89
2023/06/13 00:23:39;;;;;;;;;;;18.90;76.10;;;;;;4879036;29;19928;-88
2023/06/13 00:26:04;;;;;;;;;;;18.80;77.80;;;;;;4900081;29;20406;-88
2023/06/13 00:28:30;;;;;;;;;;;18.80;77.30;;;;;;4882529;29;19982;-88
2023/06/13 00:30:56;;;;;;;;;;;18.10;71.10;;;;;;4885628;29;19947;-89
2023/06/13 00:33:24;;;;;;;;;;;18.10;70.90;;;;;;4899608;29;19934;-89
2023/06/13 00:35:52;;;;;;;;;;;18.60;71.40;;;;;;4888119;29;19986;-89
2023/06/13 00:38:23;;;;;;;;;;;18.00;71.40;;;;;;4895667;29;19974;-88
2023/06/13 00:40:49;;;;;;;;;;;18.00;71.50;;;;;;4879120;29;20389;-89
2023/06/13 00:43:17;;;;;;;;;;;18.30;74.50;;;;;;4891427;29;20305;-89
2023/06/13 00:45:43;;;;;;;;;;;17.90;71.70;;;;;;4880880;29;19928;-88
2023/06/13 00:48:19;;;;;;;;;;;17.90;72.30;;;;;;4883058;29;19928;-90
2023/06/13 00:50:45;;;;;;;;;;;17.90;74.00;;;;;;4894299;29;19931;-88
2023/06/13 00:53:16;;;;;;;;;;;17.90;72.00;;;;;;4907804;29;19938;-89
2023/06/13 00:55:42;;;;;;;;;;;17.90;71.90;;;;;;4884346;29;19927;-89
2023/06/13 00:58:12;;;;;;;;;;;17.80;72.00;;;;;;4894237;29;19935;-88
2023/06/13 01:00:38;;;;;;;;;;;17.70;72.40;;;;;;4903007;29;19975;-90
2023/06/13 01:03:09;;;;;;;;;;;14.50;72.50;;;;;;4901653;29;20047;-90
2023/06/13 01:05:38;;;;;;;;;;;17.70;72.60;;;;;;4901918;29;20381;-90
2023/06/13 01:08:06;;;;;;;;;;;17.70;72.90;;;;;;4910196;29;19928;-90
2023/06/13 01:10:36;;;;;;;;;;;17.70;72.90;;;;;;4884381;29;20293;-89
2023/06/13 01:13:04;;;;;;;;;;;17.70;73.10;;;;;;4883514;29;19927;-89
2023/06/13 01:15:50;;;;;;;;;;;17.60;73.30;;;;;;4887432;29;19928;-88
2023/06/13 01:18:19;;;;;;;;;;;17.60;72.60;;;;;;4901196;29;19927;-89
2023/06/13 01:20:46;;;;;;;;;;;17.60;73.20;;;;;;4890090;29;19932;-89
2023/06/13 01:23:40;;;;;;;;;;;17.60;73.20;;;;;;4882220;29;19932;-88
2023/06/13 01:26:22;;;;;;;;;;;17.60;74.20;;;;;;4894895;29;20301;-88
2023/06/13 01:28:51;;;;;;;;;;;17.50;74.20;;;;;;4909522;29;20397;-88
2023/06/13 01:31:19;;;;;;;;;;;17.40;73.90;;;;;;4892842;29;19966;-88
2023/06/13 01:33:45;;;;;;;;;;;17.40;74.10;;;;;;4899917;29;19931;-88
2023/06/13 01:36:11;;;;;;;;;;;17.30;74.50;;;;;;4905380;29;19927;-89
2023/06/13 01:38:37;;;;;;;;;;;17.30;74.70;;;;;;4902947;29;20405;-88
2023/06/13 01:41:04;;;;;;;;;;;17.20;74.60;;;;;;4893066;29;19934;-88
2023/06/13 01:43:30;;;;;;;;;;;17.10;74.60;;;;;;4889580;29;20387;-89
2023/06/13 01:46:14;;;;;;;;;;;17.10;74.80;;;;;;4893593;29;20008;-88
2023/06/13 01:48:45;;;;;;;;;;;14.70;74.10;;;;;;4899766;29;19934;-88
2023/06/13 01:51:10;;;;;;;;;;;17.30;77.00;;;;;;4898211;29;19935;-89
2023/06/13 01:53:41;;;;;;;;;;;17.00;74.80;;;;;;4891368;29;19934;-89
2023/06/13 01:56:08;;;;;;;;;;;17.00;75.10;;;;;;4884974;29;20293;-87
2023/06/13 01:58:41;;;;;;;;;;;17.10;77.40;;;;;;4883521;29;19977;-88
2023/06/13 02:01:07;;;;;;;;;;;17.00;75.40;;;;;;4898615;29;19934;-87
2023/06/13 02:03:36;;;;;;;;;;;16.90;75.30;;;;;;4916807;29;19927;-88
2023/06/13 02:06:04;;;;;;;;;;;16.90;75.30;;;;;;4879819;29;19934;-87
2023/06/13 02:08:32;;;;;;;;;;;16.90;81.20;;;;;;4898849;29;19962;-88
2023/06/13 02:11:00;;;;;;;;;;;16.80;75.40;;;;;;4865099;29;19928;-87
2023/06/13 02:13:28;;;;;;;;;;;17.10;83.10;;;;;;4868867;29;20220;-87
2023/06/13 02:15:54;;;;;;;;;;;16.80;75.30;;;;;;4883299;29;19943;-87
2023/06/13 02:18:20;;;;;;;;;;;16.50;75.30;;;;;;4900686;29;19927;-89
2023/06/13 02:20:48;;;;;;;;;;;14.90;75.30;;;;;;4906291;29;19974;-88
2023/06/13 02:23:15;;;;;;;;;;;16.60;75.80;;;;;;4881716;29;20015;-88
2023/06/13 02:25:41;;;;;;;;;;;16.50;76.10;;;;;;4894099;29;19927;-88
2023/06/13 02:28:07;;;;;;;;;;;16.50;75.80;;;;;;4881240;29;20289;-89
2023/06/13 02:30:32;;;;;;;;;;;16.50;85.90;;;;;;4880219;29;19969;-88
2023/06/13 02:32:58;;;;;;;;;;;16.40;76.60;;;;;;4909368;29;19928;-88
2023/06/13 02:35:24;;;;;;;;;;;17.90;77.80;;;;;;4891994;29;19934;-88
2023/06/13 02:37:53;;;;;;;;;;;14.10;76.40;;;;;;4909958;29;19975;-88
2023/06/13 02:40:23;;;;;;;;;;;16.20;78.60;;;;;;4897918;29;20014;-88
2023/06/13 02:42:52;;;;;;;;;;;16.30;78.30;;;;;;4896968;29;19934;-88
2023/06/13 02:45:20;;;;;;;;;;;16.20;78.10;;;;;;4897534;29;19927;-88
2023/06/13 02:47:46;;;;;;;;;;;16.10;78.70;;;;;;4902802;29;20265;-88
2023/06/13 02:50:11;;;;;;;;;;;16.10;78.30;;;;;;4881767;29;19934;-88
2023/06/13 02:52:40;;;;;;;;;;;16.10;77.40;;;;;;4882289;29;19979;-88
2023/06/13 02:55:07;;;;;;;;;;;16.00;78.30;;;;;;4900376;29;19931;-88
2023/06/13 02:57:33;;;;;;;;;;;16.00;78.60;;;;;;4910731;29;19998;-88
2023/06/13 02:59:59;;;;;;;;;;;16.00;77.00;;;;;;4888076;29;20325;-88
2023/06/13 03:02:26;;;;;;;;;;;15.90;79.20;;;;;;4899510;29;19965;-88
2023/06/13 03:04:54;;;;;;;;;;;15.90;78.90;;;;;;4906803;29;19994;-88
2023/06/13 03:07:25;;;;;;;;;;;15.90;79.10;;;;;;4885888;29;19967;-88
2023/06/13 03:09:50;;;;;;;;;;;15.90;77.50;;;;;;4906066;29;19963;-88
2023/06/13 03:12:18;;;;;;;;;;;15.80;79.30;;;;;;4885477;29;20377;-87
2023/06/13 03:14:46;;;;;;;;;;;15.80;78.40;;;;;;4861232;29;21047;-87
2023/06/13 03:17:12;;;;;;;;;;;15.90;79.20;;;;;;4881675;29;19928;-88
2023/06/13 03:19:38;;;;;;;;;;;15.80;79.30;;;;;;4885926;29;20300;-87
2023/06/13 03:22:03;;;;;;;;;;;15.80;78.50;;;;;;4878805;29;19934;-88
2023/06/13 03:24:32;;;;;;;;;;;15.70;79.20;;;;;;4881369;29;19928;-88
2023/06/13 03:26:59;;;;;;;;;;;15.70;79.80;;;;;;4878912;29;19975;-88
2023/06/13 03:29:27;;;;;;;;;;;15.60;80.20;;;;;;4897722;29;19971;-87
2023/06/13 03:31:53;;;;;;;;;;;15.40;80.40;;;;;;4901011;29;19928;-87
2023/06/13 03:34:24;;;;;;;;;;;15.40;80.40;;;;;;4866500;29;20291;-87
2023/06/13 03:36:53;;;;;;;;;;;15.50;80.70;;;;;;4888697;29;19980;-89
2023/06/13 03:39:21;;;;;;;;;;;15.40;81.00;;;;;;4888945;29;19927;-88
2023/06/13 03:41:46;;;;;;;;;;;15.40;79.90;;;;;;4894006;29;20374;-87
2023/06/13 03:44:12;;;;;;;;;;;15.40;80.50;;;;;;4900080;29;19928;-88
2023/06/13 03:46:40;;;;;;;;;;;15.40;81.60;;;;;;4893169;29;20322;-88
2023/06/13 03:49:13;;;;;;;;;;;15.30;81.30;;;;;;4899396;29;19927;-88
2023/06/13 03:51:39;;;;;;;;;;;15.40;81.90;;;;;;4891297;29;20412;-88
2023/06/13 03:54:07;;;;;;;;;;;15.40;81.70;;;;;;4869420;29;19984;-89
2023/06/13 03:56:32;;;;;;;;;;;15.50;81.10;;;;;;4904668;29;20067;-89
2023/06/13 03:59:05;;;;;;;;;;;15.50;81.50;;;;;;4870775;29;19972;-88
2023/06/13 04:01:31;;;;;;;;;;;15.60;81.40;;;;;;4881995;29;20262;-88
2023/06/13 04:04:00;;;;;;;;;;;15.50;81.50;;;;;;4879055;29;19926;-88
2023/06/13 04:06:28;;;;;;;;;;;15.70;81.40;;;;;;4898144;29;19983;-88
2023/06/13 04:08:57;;;;;;;;;;;16.00;79.60;;;;;;4894981;29;19950;-87
2023/06/13 04:11:23;;;;;;;;;;;16.00;79.40;;;;;;4901250;29;19950;-87
2023/06/13 04:13:49;;;;;;;;;;;16.00;79.20;;;;;;4896869;29;19928;-88
2023/06/13 04:16:26;;;;;;;;;;;16.10;79.50;;;;;;4899607;29;19988;-88
2023/06/13 04:18:55;;;;;;;;;;;16.10;79.00;;;;;;4885844;29;20012;-88
2023/06/13 04:21:24;;;;;;;;;;;16.00;78.70;;;;;;4883326;29;20278;-89
2023/06/13 04:23:53;;;;;;;;;;;16.00;79.00;;;;;;4880722;29;19939;-87
2023/06/13 04:26:19;;;;;;;;;;;16.00;79.00;;;;;;4895429;29;19949;-88
2023/06/13 04:28:45;;;;;;;;;;;16.00;78.50;;;;;;4885049;29;19938;-87
2023/06/13 04:31:11;;;;;;;;;;;16.00;78.30;;;;;;4883506;29;20342;-87
2023/06/13 04:33:46;;;;;;;;;;;16.10;77.90;;;;;;4882199;29;19975;-86
2023/06/13 04:36:13;;;;;;;;;;;16.10;78.00;;;;;;4899482;29;20323;-87
2023/06/13 04:38:39;;;;;;;;;;;16.00;78.10;;;;;;4891770;29;19927;-87
2023/06/13 04:41:13;;;;;;;;;;;16.00;79.30;;;;;;4898122;29;19975;-87
2023/06/13 04:43:41;;;;;;;;;;;16.10;79.20;;;;;;4893957;29;19927;-87
2023/06/13 04:46:26;;;;;;;;;;;16.10;78.30;;;;;;4888239;29;20377;-88
2023/06/13 04:48:52;;;;;;;;;;;16.10;78.10;;;;;;4888900;29;19965;-86
2023/06/13 04:51:21;;;;;;;;;;;18.50;79.50;;;;;;4908506;29;19971;-87
2023/06/13 04:53:52;;;;;;;;;;;16.30;81.70;;;;;;4897639;29;20386;-87
2023/06/13 04:56:17;;;;;;;;;;;16.20;77.60;;;;;;4883709;29;19927;-86
2023/06/13 04:58:43;;;;;;;;;;;16.20;77.40;;;;;;4881489;29;20387;-87
2023/06/13 05:01:13;;;;;;;;;;;16.30;76.60;;;;;;4895171;29;20002;-88
2023/06/13 05:03:46;;;;;;;;;;;16.20;76.80;;;;;;4896458;29;19935;-86
2023/06/13 05:06:15;;;;;;;;;;;16.30;76.90;;;;;;4899400;29;19935;-87
2023/06/13 05:08:43;;;;;;;;;;;16.30;76.90;;;;;;4902220;29;19927;-87
2023/06/13 05:11:09;;;;;;;;;;;16.20;77.10;;;;;;4891492;29;19928;-88
2023/06/13 05:13:35;;;;;;;;;;;16.20;77.20;;;;;;4877674;29;19943;-87
2023/06/13 05:16:00;;;;;;;;;;;16.30;77.70;;;;;;4883736;29;20301;-87
2023/06/13 05:18:29;;;;;;;;;;;13.40;75.60;;;;;;4882574;29;19971;-87
2023/06/13 05:20:56;;;;;;;;;;;16.40;77.50;;;;;;4905185;29;20031;-88
2023/06/13 05:23:25;;;;;;;;;;;16.30;77.60;;;;;;4905791;29;19935;-86
2023/06/13 05:25:51;;;;;;;;;;;16.40;76.80;;;;;;4892807;29;19927;-87
2023/06/13 05:28:16;;;;;;;;;;;16.50;76.50;;;;;;4901603;29;19928;-87
2023/06/13 05:30:42;;;;;;;;;;;17.10;79.20;;;;;;4882986;29;20026;-87
2023/06/13 05:33:08;;;;;;;;;;;16.50;79.00;;;;;;4884593;29;20357;-87
2023/06/13 05:35:36;;;;;;;;;;;16.40;76.60;;;;;;4891175;29;19935;-87
2023/06/13 05:38:02;;;;;;;;;;;16.60;76.20;;;;;;4888754;29;20365;-86
2023/06/13 05:40:28;;;;;;;;;;;16.60;75.40;;;;;;4907486;29;19928;-87
2023/06/13 05:42:54;;;;;;;;;;;16.70;74.80;;;;;;4895808;29;19934;-91
2023/06/13 05:45:21;;;;;;;;;;;14.50;80.70;;;;;;4883172;29;19962;-87
2023/06/13 05:47:47;;;;;;;;;;;16.90;74.30;;;;;;4897124;29;20294;-88
2023/06/13 05:50:15;;;;;;;;;;;17.00;74.50;;;;;;4885351;29;19927;-88
2023/06/13 05:52:41;;;;;;;;;;;17.00;74.20;;;;;;4887491;29;19950;-87
2023/06/13 05:55:07;;;;;;;;;;;17.10;73.80;;;;;;4878761;29;19927;-89
2023/06/13 05:57:42;;;;;;;;;;;17.20;81.10;;;;;;4859257;29;19935;-86
2023/06/13 06:00:11;;;;;;;;;;;17.30;73.80;;;;;;4892703;29;20029;-86
2023/06/13 06:02:37;;;;;;;;;;;17.30;74.30;;;;;;4902759;29;19931;-86
2023/06/13 06:05:04;;;;;;;;;;;17.30;73.00;;;;;;4859905;29;20063;-88
2023/06/13 06:07:30;;;;;;;;;;;17.40;73.60;;;;;;4880763;29;19927;-86
2023/06/13 06:09:55;;;;;;;;;;;17.50;72.60;;;;;;4896139;29;19931;-87
2023/06/13 06:12:21;;;;;;;;;;;17.50;72.30;;;;;;4880795;29;19934;-85
2023/06/13 06:14:47;;;;;;;;;;;17.60;72.60;;;;;;4892859;29;19927;-86
2023/06/13 06:17:12;;;;;;;;;;;17.60;71.20;;;;;;4880134;29;19974;-88
2023/06/13 06:19:38;;;;;;;;;;;17.70;71.20;;;;;;4876753;29;20352;-88
2023/06/13 06:22:04;;;;;;;;;;;17.80;73.80;;;;;;4880518;29;20303;-84
2023/06/13 06:24:29;;;;;;;;;;;17.80;72.20;;;;;;4883439;29;20022;-87
2023/06/13 06:26:55;;;;;;;;;;;17.90;73.00;;;;;;4864989;29;19992;-89
2023/06/13 06:29:20;;;;;;;;;;;18.00;71.90;;;;;;4879274;29;19998;-86
2023/06/13 06:31:46;;;;;;;;;;;18.10;71.20;;;;;;4895944;29;20026;-87
2023/06/13 06:34:12;;;;;;;;;;;18.30;70.90;;;;;;4876918;29;19978;-87
2023/06/13 06:36:37;;;;;;;;;;;18.30;71.20;;;;;;4864591;29;20018;-88
2023/06/13 06:39:03;;;;;;;;;;;18.40;71.60;;;;;;4880417;29;19943;-85
2023/06/13 06:41:29;;;;;;;;;;;18.40;70.30;;;;;;4887187;29;19928;-86
2023/06/13 06:43:54;;;;;;;;;;;18.50;69.00;;;;;;4887211;29;19931;-86
2023/06/13 06:46:20;;;;;;;;;;;18.50;69.20;;;;;;4895117;29;20370;-87
2023/06/13 06:48:45;;;;;;;;;;;18.60;68.80;;;;;;4879427;29;19927;-86
2023/06/13 06:51:11;;;;;;;;;;;18.70;68.30;;;;;;4895842;29;20374;-88
2023/06/13 06:53:37;;;;;;;;;;;18.70;68.10;;;;;;4895360;29;19934;-86
2023/06/13 06:56:02;;;;;;;;;;;18.70;68.30;;;;;;4895568;29;19927;-86
2023/06/13 06:58:28;;;;;;;;;;;18.80;69.00;;;;;;4895926;29;19928;-85
2023/06/13 07:00:54;;;;;;;;;;;18.90;69.40;;;;;;4882263;29;19931;-87
2023/06/13 07:03:20;;;;;;;;;;;18.90;68.70;;;;;;4902282;29;19928;-87
2023/06/13 07:05:46;;;;;;;;;;;19.00;68.40;;;;;;4879550;29;19979;-85
2023/06/13 07:08:11;;;;;;;;;;;19.00;68.20;;;;;;4895564;29;20638;-86
2023/06/13 07:10:37;;;;;;;;;;;19.20;68.20;;;;;;4868486;29;19927;-86
2023/06/13 07:13:03;;;;;;;;;;;19.20;69.20;;;;;;4879626;29;19927;-87
2023/06/13 07:15:30;;;;;;;;;;;19.20;65.90;;;;;;4884551;29;19927;-87
2023/06/13 07:17:55;;;;;;;;;;;19.20;66.70;;;;;;4883355;29;19938;-86
2023/06/13 07:20:21;;;;;;;;;;;19.30;66.50;;;;;;4894943;29;19927;-86
2023/06/13 07:22:46;;;;;;;;;;;19.40;65.00;;;;;;4879792;29;19946;-86
2023/06/13 07:25:12;;;;;;;;;;;19.40;64.50;;;;;;4895007;29;19938;-87
2023/06/13 07:27:38;;;;;;;;;;;19.40;64.70;;;;;;4895599;29;20282;-87
2023/06/13 07:30:04;;;;;;;;;;;19.40;64.20;;;;;;4886299;29;19932;-86
2023/06/13 07:32:29;;;;;;;;;;;19.50;64.40;;;;;;4889759;29;20000;-88
2023/06/13 07:34:55;;;;;;;;;;;19.60;63.70;;;;;;4891158;29;19931;-86
2023/06/13 07:37:22;;;;;;;;;;;19.70;63.70;;;;;;4879276;29;19994;-87
2023/06/13 07:39:47;;;;;;;;;;;19.70;63.10;;;;;;4895851;29;19928;-87
2023/06/13 07:42:13;;;;;;;;;;;19.80;64.00;;;;;;4895854;29;19991;-87
2023/06/13 07:44:39;;;;;;;;;;;19.90;62.50;;;;;;4884580;29;20006;-85
2023/06/13 07:47:05;;;;;;;;;;;20.00;62.10;;;;;;4894736;29;19943;-86
2023/06/13 07:49:31;;;;;;;;;;;21.90;63.30;;;;;;4891435;29;19931;-88
2023/06/13 07:51:57;;;;;;;;;;;20.00;63.10;;;;;;4884954;29;19932;-88
2023/06/13 07:54:22;;;;;;;;;;;20.10;63.40;;;;;;4894135;29;19934;-86
2023/06/13 07:56:49;;;;;;;;;;;20.20;62.90;;;;;;4880024;29;19934;-88
2023/06/13 07:59:15;;;;;;;;;;;20.30;61.40;;;;;;4895166;29;19954;-86
2023/06/13 08:01:41;;;;;;;;;;;20.40;62.40;;;;;;4894745;29;20366;-86
2023/06/13 08:04:07;;;;;;;;;;;20.40;64.10;;;;;;4894360;29;20334;-87
2023/06/13 08:06:32;;;;;;;;;;;20.50;61.80;;;;;;4878303;29;19935;-89
2023/06/13 08:08:58;;;;;;;;;;;20.50;64.90;;;;;;4879245;29;20294;-87
2023/06/13 08:11:24;;;;;;;;;;;20.60;63.00;;;;;;4879576;29;19983;-87
2023/06/13 08:13:49;;;;;;;;;;;20.80;64.10;;;;;;4879847;29;20276;-87
2023/06/13 08:16:15;;;;;;;;;;;20.90;63.80;;;;;;4881554;29;19927;-85
2023/06/13 08:18:40;;;;;;;;;;;21.00;61.50;;;;;;4882158;29;20007;-86
2023/06/13 08:21:06;;;;;;;;;;;21.00;61.30;;;;;;4898436;29;19935;-86
2023/06/13 08:23:32;;;;;;;;;;;21.10;61.00;;;;;;4882543;29;20026;-86
2023/06/13 08:25:57;;;;;;;;;;;21.10;61.60;;;;;;4880633;29;19931;-87
2023/06/13 08:28:23;;;;;;;;;;;21.30;61.20;;;;;;4899064;29;19987;-85
2023/06/13 08:30:49;;;;;;;;;;;21.50;60.10;;;;;;4898050;29;20366;-86
2023/06/13 08:33:14;;;;;;;;;;;21.60;60.20;;;;;;4897184;29;19932;-85
2023/06/13 08:35:40;;;;;;;;;;;21.60;59.90;;;;;;4896996;29;19934;-86
2023/06/13 08:38:07;;;;;;;;;;;21.70;60.20;;;;;;4878328;29;19993;-86
2023/06/13 08:40:32;;;;;;;;;;;21.70;60.80;;;;;;4891453;29;20036;-85
2023/06/13 08:43:00;;;;;;;;;;;21.80;60.60;;;;;;4877581;29;20019;-85
2023/06/13 08:45:26;;;;;;;;;;;21.90;59.90;;;;;;4882017;29;19928;-84
2023/06/13 08:47:52;;;;;;;;;;;21.90;58.60;;;;;;4896914;29;19983;-86
2023/06/13 08:50:24;;;;;;;;;;;22.00;58.90;;;;;;4897704;29;20305;-86
2023/06/13 08:52:50;;;;;;;;;;;22.00;60.30;;;;;;4897814;29;19928;-85
2023/06/13 08:55:16;;;;;;;;;;;22.00;59.90;;;;;;4894742;29;20042;-88
2023/06/13 08:57:42;;;;;;;;;;;22.20;60.90;;;;;;4892822;29;19928;-85
2023/06/13 09:00:12;;;;;;;;;;;22.30;61.00;;;;;;4897911;29;19950;-85
2023/06/13 09:02:43;;;;;;;;;;;22.50;59.90;;;;;;4896964;29;19931;-87
2023/06/13 09:05:15;;;;;;;;;;;22.50;60.40;;;;;;4880178;29;20330;-86
2023/06/13 09:07:45;;;;;;;;;;;22.60;59.60;;;;;;4880107;29;19927;-86
2023/06/13 09:10:12;;;;;;;;;;;22.60;58.20;;;;;;4882318;29;20281;-86
2023/06/13 09:12:40;;;;;;;;;;;22.70;59.90;;;;;;4895357;29;19928;-87
2023/06/13 09:15:06;;;;;;;;;;;22.80;58.80;;;;;;4897131;29;19931;-85
2023/06/13 09:17:31;;;;;;;;;;;22.90;56.20;;;;;;4894356;29;19931;-84
2023/06/13 09:19:57;;;;;;;;;;;22.90;56.10;;;;;;4895534;29;20366;-85
2023/06/13 09:22:23;;;;;;;;;;;23.00;56.30;;;;;;4897055;29;19928;-85
2023/06/13 09:24:52;;;;;;;;;;;23.00;56.60;;;;;;4896674;29;19928;-88
2023/06/13 09:27:18;;;;;;;;;;;23.10;57.60;;;;;;4880322;29;19935;-86
2023/06/13 09:29:44;;;;;;;;;;;23.20;56.10;;;;;;4888155;29;19927;-85
2023/06/13 09:32:11;;;;;;;;;;;23.30;56.30;;;;;;4882237;29;20370;-84
2023/06/13 09:34:38;;;;;;;;;;;23.40;54.70;;;;;;4879821;29;20434;-86
2023/06/13 09:37:05;;;;;;;;;;;23.40;54.50;;;;;;4875465;29;19934;-87
2023/06/13 09:39:31;;;;;;;;;;;23.40;54.60;;;;;;4896742;29;19963;-85
2023/06/13 09:41:58;;;;;;;;;;;23.40;54.50;;;;;;4878283;29;19974;-86
2023/06/13 09:44:24;;;;;;;;;;;23.50;55.80;;;;;;4895422;29;20267;-86
2023/06/13 09:46:50;;;;;;;;;;;23.50;55.90;;;;;;4896335;29;19927;-86
2023/06/13 09:49:16;;;;;;;;;;;23.60;56.30;;;;;;4896046;29;19986;-86
2023/06/13 09:51:42;;;;;;;;;;;23.70;56.40;;;;;;4896634;29;20402;-86
2023/06/13 09:54:08;;;;;;;;;;;23.80;55.20;;;;;;4880986;29;19934;-87
2023/06/13 09:56:33;;;;;;;;;;;23.80;55.00;;;;;;4881065;29;19928;-87
2023/06/13 09:58:59;;;;;;;;;;;23.80;56.40;;;;;;4880782;29;20294;-85
2023/06/13 10:01:25;;;;;;;;;;;23.90;55.20;;;;;;4897147;29;19970;-85
2023/06/13 10:03:52;;;;;;;;;;;24.00;55.30;;;;;;4888503;29;20421;-86
2023/06/13 10:06:17;;;;;;;;;;;24.10;55.10;;;;;;4896313;29;19975;-86
2023/06/13 10:08:43;;;;;;;;;;;24.10;53.70;;;;;;4896519;29;19935;-86
2023/06/13 10:11:10;;;;;;;;;;;24.10;53.00;;;;;;4865364;29;19987;-85
2023/06/13 10:13:44;;;;;;;;;;;24.10;52.20;;;;;;4880321;29;19932;-87
2023/06/13 10:16:12;;;;;;;;;;;24.10;54.20;;;;;;4896007;29;20392;-85
2023/06/13 10:18:39;;;;;;;;;;;24.20;53.60;;;;;;4893116;29;19931;-87
2023/06/13 10:21:06;;;;;;;;;;;24.50;53.80;;;;;;4896219;29;19938;-85
2023/06/13 10:23:33;;;;;;;;;;;24.50;54.80;;;;;;4895652;29;19935;-85
2023/06/13 10:26:03;;;;;;;;;;;24.70;51.70;;;;;;4881583;29;20377;-86
2023/06/13 10:28:35;;;;;;;;;;;24.50;52.90;;;;;;4896717;29;19927;-85
2023/06/13 10:31:19;;;;;;;;;;;24.50;52.80;;;;;;4895967;29;20039;-86
2023/06/13 10:33:48;;;;;;;;;;;24.50;55.60;;;;;;4896908;29;20361;-85
2023/06/13 10:36:20;;;;;;;;;;;24.60;55.30;;;;;;4881611;29;20385;-85
2023/06/13 10:38:53;;;;;;;;;;;24.70;53.50;;;;;;4897478;29;20033;-86
2023/06/13 10:41:26;;;;;;;;;;;25.40;54.60;;;;;;4892962;29;19934;-86
2023/06/13 10:43:55;;;;;;;;;;;24.70;55.50;;;;;;4887918;29;19977;-86
2023/06/13 10:46:21;;;;;;;;;;;24.90;56.20;;;;;;4896984;29;19928;-86
2023/06/13 10:48:48;;;;;;;;;;;24.90;55.50;;;;;;4886895;29;20013;-85
2023/06/13 10:51:18;;;;;;;;;;;25.00;54.50;;;;;;4894418;29;19934;-85
2023/06/13 10:53:44;;;;;;;;;;;24.90;54.80;;;;;;4881976;29;19950;-85
2023/06/13 10:56:10;;;;;;;;;;;24.80;56.30;;;;;;4864232;29;20433;-85
2023/06/13 10:58:36;;;;;;;;;;;24.80;56.50;;;;;;4896675;29;19928;-85
2023/06/13 11:01:03;;;;;;;;;;;24.80;56.70;;;;;;4878476;29;20330;-86
2023/06/13 11:03:30;;;;;;;;;;;24.80;57.60;;;;;;4894662;29;20071;-86
2023/06/13 11:06:03;;;;;;;;;;;24.90;57.70;;;;;;4893910;29;19936;-86
2023/06/13 11:08:30;;;;;;;;;;;24.90;57.90;;;;;;4896960;29;19935;-85
2023/06/13 11:10:56;;;;;;;;;;;25.10;57.80;;;;;;4897511;29;19927;-85
2023/06/13 11:13:23;;;;;;;;;;;25.10;58.40;;;;;;4875436;29;19928;-84
2023/06/13 11:15:50;;;;;;;;;;;25.10;58.00;;;;;;4897151;29;20344;-86
2023/06/13 11:18:19;;;;;;;;;;;25.10;59.00;;;;;;4890099;29;20022;-85
2023/06/13 11:20:51;;;;;;;;;;;25.10;59.80;;;;;;4876130;29;19950;-85
2023/06/13 11:23:18;;;;;;;;;;;25.20;59.90;;;;;;4881232;29;19928;-86
2023/06/13 11:25:45;;;;;;;;;;;25.30;59.70;;;;;;4896985;29;19927;-84
2023/06/13 11:28:12;;;;;;;;;;;25.40;59.90;;;;;;4896625;29;19927;-86
2023/06/13 11:30:38;;;;;;;;;;;25.30;59.30;;;;;;4896733;29;19927;-87
2023/06/13 11:33:05;;;;;;;;;;;25.50;57.70;;;;;;4880827;29;19927;-86
2023/06/13 11:35:31;;;;;;;;;;;25.50;57.70;;;;;;4899185;29;19934;-84
2023/06/13 11:38:00;;;;;;;;;;;25.30;58.10;;;;;;4894885;29;19933;-86
2023/06/13 11:40:31;;;;;;;;;;;25.30;59.30;;;;;;4898024;29;19927;-84
2023/06/13 11:42:56;;;;;;;;;;;25.40;59.80;;;;;;4911904;29;20022;-85
2023/06/13 11:45:22;;;;;;;;;;;25.50;59.80;;;;;;4868645;29;20018;-85
2023/06/13 11:48:00;;;;;;;;;;;25.60;58.80;;;;;;4883389;29;19927;-86
2023/06/13 11:50:26;;;;;;;;;;;25.50;59.00;;;;;;4887632;29;19926;-85
2023/06/13 11:53:02;;;;;;;;;;;25.60;60.00;;;;;;4903273;29;20342;-86
2023/06/13 11:55:27;;;;;;;;;;;25.70;56.90;;;;;;4887999;29;20401;-86
2023/06/13 11:57:55;;;;;;;;;;;25.60;57.30;;;;;;4887911;29;20049;-84
2023/06/13 12:00:25;;;;;;;;;;;25.50;55.10;;;;;;4903658;29;19927;-86
2023/06/13 12:02:58;;;;;;;;;;;25.40;55.00;;;;;;4887929;29;19966;-86
2023/06/13 12:05:24;;;;;;;;;;;25.50;55.90;;;;;;4894891;29;19928;-86
2023/06/13 12:07:50;;;;;;;;;;;25.50;56.80;;;;;;4901026;29;19927;-86
2023/06/13 12:10:17;;;;;;;;;;;25.60;55.60;;;;;;4887684;29;19935;-85
2023/06/13 12:12:54;;;;;;;;;;;25.70;55.40;;;;;;4887751;29;20294;-86
2023/06/13 12:15:23;;;;;;;;;;;25.60;55.20;;;;;;4894214;29;19928;-86
2023/06/13 12:18:02;;;;;;;;;;;25.60;55.70;;;;;;4897096;29;19974;-88
2023/06/13 12:20:28;;;;;;;;;;;25.70;56.10;;;;;;4907300;29;19970;-85
2023/06/13 12:22:55;;;;;;;;;;;25.80;55.30;;;;;;4891842;29;19935;-86
2023/06/13 12:25:21;;;;;;;;;;;25.80;55.00;;;;;;4901822;29;19934;-86
2023/06/13 12:27:50;;;;;;;;;;;25.80;55.10;;;;;;4903257;29;20321;-88
2023/06/13 12:30:17;;;;;;;;;;;25.90;54.30;;;;;;4888045;29;19978;-86
2023/06/13 12:32:44;;;;;;;;;;;25.90;53.80;;;;;;4902453;29;20390;-85
2023/06/13 12:35:10;;;;;;;;;;;25.90;54.70;;;;;;4902385;29;19931;-85
2023/06/13 12:37:37;;;;;;;;;;;25.80;54.10;;;;;;4902193;29;19931;-85
2023/06/13 12:40:11;;;;;;;;;;;25.80;53.70;;;;;;4887667;29;19960;-84
2023/06/13 12:42:42;;;;;;;;;;;25.90;54.50;;;;;;4872997;29;19928;-86
2023/06/13 12:45:11;;;;;;;;;;;26.00;53.50;;;;;;4902495;29;19934;-86
2023/06/13 12:47:36;;;;;;;;;;;26.00;55.30;;;;;;4901763;29;20120;-85
2023/06/13 12:50:09;;;;;;;;;;;26.10;53.50;;;;;;4902406;29;19987;-85
2023/06/13 12:52:38;;;;;;;;;;;26.10;53.20;;;;;;4906881;29;19995;-85
2023/06/13 12:55:04;;;;;;;;;;;26.10;52.00;;;;;;4898766;29;19939;-86
2023/06/13 12:57:30;;;;;;;;;;;26.00;52.70;;;;;;4871404;29;20330;-86
2023/06/13 12:59:57;;;;;;;;;;;26.00;53.10;;;;;;4897356;29;19927;-86
2023/06/13 13:02:23;;;;;;;;;;;26.20;52.80;;;;;;4897850;29;20286;-86
2023/06/13 13:04:57;;;;;;;;;;;26.10;53.10;;;;;;4901433;29;19988;-85
2023/06/13 13:07:23;;;;;;;;;;;26.10;52.60;;;;;;4886624;29;19927;-86
2023/06/13 13:09:49;;;;;;;;;;;26.10;54.20;;;;;;4902560;29;19928;-85
2023/06/13 13:12:15;;;;;;;;;;;26.20;53.80;;;;;;4902327;29;20464;-86
2023/06/13 13:14:40;;;;;;;;;;;26.30;54.00;;;;;;4886502;29;19962;-85
2023/06/13 13:17:07;;;;;;;;;;;26.20;51.80;;;;;;4901970;29;19950;-85
2023/06/13 13:19:34;;;;;;;;;;;26.20;52.60;;;;;;4901599;29;19959;-86
2023/06/13 13:22:00;;;;;;;;;;;26.40;52.40;;;;;;4895932;29;20000;-85
2023/06/13 13:24:26;;;;;;;;;;;26.30;52.10;;;;;;4887605;29;19931;-84
2023/06/13 13:26:53;;;;;;;;;;;26.20;52.60;;;;;;4903250;29;20016;-85
2023/06/13 13:29:19;;;;;;;;;;;26.10;52.20;;;;;;4886195;29;20393;-86
2023/06/13 13:31:44;;;;;;;;;;;26.00;52.60;;;;;;4893896;29;19974;-85
2023/06/13 13:34:11;;;;;;;;;;;26.10;52.90;;;;;;4898912;29;19927;-86
2023/06/13 13:36:37;;;;;;;;;;;26.10;52.70;;;;;;4901267;29;19927;-86
2023/06/13 13:39:03;;;;;;;;;;;26.20;52.90;;;;;;4901537;29;19975;-85
2023/06/13 13:41:32;;;;;;;;;;;26.40;52.50;;;;;;4901852;29;19927;-85
2023/06/13 13:44:01;;;;;;;;;;;26.40;53.30;;;;;;4900870;29;19934;-86
2023/06/13 13:46:27;;;;;;;;;;;26.50;52.60;;;;;;4901094;29;20010;-86
2023/06/13 13:48:53;;;;;;;;;;;26.50;52.60;;;;;;4900596;29;19927;-85
2023/06/13 13:51:19;;;;;;;;;;;26.50;50.60;;;;;;4901673;29;19927;-86
2023/06/13 13:53:45;;;;;;;;;;;26.40;51.90;;;;;;4901957;29;20010;-86
2023/06/13 13:56:15;;;;;;;;;;;26.40;52.70;;;;;;4901850;29;20084;-85
2023/06/13 13:58:40;;;;;;;;;;;24.40;51.20;;;;;;4885494;29;20374;-85
2023/06/13 14:01:06;;;;;;;;;;;26.40;52.50;;;;;;4891304;29;19935;-86
2023/06/13 14:03:32;;;;;;;;;;;26.40;53.00;;;;;;4903776;29;20238;-85
2023/06/13 14:05:57;;;;;;;;;;;26.40;53.60;;;;;;4882977;29;19950;-85
2023/06/13 14:08:23;;;;;;;;;;;26.50;52.80;;;;;;4885686;29;20357;-85
2023/06/13 14:10:48;;;;;;;;;;;26.50;53.20;;;;;;4895036;29;19933;-85
2023/06/13 14:13:14;;;;;;;;;;;26.60;54.10;;;;;;4880410;29;19931;-86
2023/06/13 14:15:40;;;;;;;;;;;26.60;53.80;;;;;;4866255;29;19950;-85
2023/06/13 14:18:05;;;;;;;;;;;26.60;54.80;;;;;;4893853;29;19974;-88